Newtownards, United Kingdom
Current Conditions -  °F | °C
As of 4:20 PM on Wednesday 26 Nov 2014 (Local Time) from EGAC Reporting Station
Rain Showers Rain Showers  
Wind Chill: 46°   Ceiling: 4600
Heat Index: 46°   Visibility: 6mi
Dew Point: 43°   Wind: 3mph
Humidity: 87%   Direction: NA
Pressure: 29.85"   Gusts: NA
Location:  54.6°N, 5.7°W
Report Text: EGAC 261620Z VRB03KT 9999 VCSH FEW011 SCT023 BKN046 08/06 Q1011
Loading
Personal Weather Stations






























Interactive Weather Map New forecast layout! Learn more

10-Day Weather Forecast

Advertisements
Track Severe Weather on mobile